createdAt,value
2022-11-14T00:01:09.842Z,18.80
2022-11-14T00:03:36.566Z,97.88
2022-11-14T00:06:07.095Z,42.25
2022-11-14T00:08:34.184Z,121.78
2022-11-14T00:11:00.998Z,113.20
2022-11-14T00:13:27.723Z,108.13
2022-11-14T00:15:54.513Z,194.57
2022-11-14T00:18:21.932Z,218.77
2022-11-14T00:20:50.137Z,117.40
2022-11-14T00:23:17.070Z,349.17
2022-11-14T00:25:45.390Z,235.98
2022-11-14T00:28:12.531Z,141.90
2022-11-14T00:30:39.267Z,165.88
2022-11-14T00:33:06.026Z,120.13
2022-11-14T00:35:32.745Z,38.40
2022-11-14T00:37:59.467Z,107.82
2022-11-14T00:40:26.200Z,75.63
2022-11-14T00:42:53.036Z,67.45
2022-11-14T00:45:19.774Z,23.77
2022-11-14T00:47:46.501Z,33.35
2022-11-14T00:50:13.318Z,176.85
2022-11-14T00:52:40.411Z,109.77
2022-11-14T00:55:08.124Z,37.53
2022-11-14T00:57:34.839Z,26.67
2022-11-14T01:00:01.620Z,116.45
2022-11-14T01:02:28.356Z,60.60
2022-11-14T01:04:55.157Z,55.97
2022-11-14T01:07:21.873Z,166.57
2022-11-14T01:09:48.607Z,118.50
2022-11-14T01:12:15.340Z,186.05
2022-11-14T01:14:42.106Z,223.10
2022-11-14T01:17:09.123Z,90.30
2022-11-14T01:19:35.953Z,144.88
2022-11-14T01:22:06.106Z,194.60
2022-11-14T01:24:34.473Z,59.55
2022-11-14T01:27:02.160Z,48.70
2022-11-14T01:29:29.022Z,100.78
2022-11-14T01:31:56.093Z,62.13
2022-11-14T01:34:23.408Z,140.20
2022-11-14T01:36:50.215Z,61.28
2022-11-14T01:39:16.996Z,53.00
2022-11-14T01:41:43.901Z,8.07
2022-11-14T01:44:17.571Z,4.10
2022-11-14T01:46:50.140Z,6.50
2022-11-14T01:49:25.598Z,2.90
2022-11-14T01:52:05.098Z,3.33
2022-11-14T01:54:37.532Z,3.88
2022-11-14T01:57:06.290Z,3.92
2022-11-14T01:59:41.957Z,4.43
2022-11-14T02:02:20.785Z,3.28
2022-11-14T02:04:53.861Z,3.72
2022-11-14T02:07:20.926Z,8.67
2022-11-14T02:09:49.289Z,1.88
2022-11-14T02:12:18.490Z,2.20
2022-11-14T02:14:48.341Z,1.55
2022-11-14T02:17:32.681Z,245.80
2022-11-14T02:20:11.818Z,193.15
2022-11-14T02:22:42.962Z,168.60
2022-11-14T02:25:13.269Z,89.68
2022-11-14T02:27:41.537Z,34.70
2022-11-14T02:30:52.634Z,74.70
2022-11-14T02:33:31.655Z,51.17
2022-11-14T02:36:08.722Z,62.03
2022-11-14T02:38:42.168Z,45.67
2022-11-14T02:41:10.781Z,49.23
2022-11-14T02:43:57.675Z,45.23
2022-11-14T02:46:34.563Z,30.17
2022-11-14T02:49:04.982Z,45.67
2022-11-14T02:54:54.245Z,65.23
2022-11-14T02:57:21.487Z,16.33
2022-11-14T02:59:48.221Z,24.73
2022-11-14T03:02:14.956Z,15.93
2022-11-14T03:04:41.707Z,18.80
2022-11-14T03:07:08.554Z,21.60
2022-11-14T03:09:35.343Z,6.47
2022-11-14T03:12:02.197Z,11.50
2022-11-14T03:14:31.614Z,3.87
2022-11-14T03:16:58.477Z,5.57
2022-11-14T03:19:25.253Z,4.03
2022-11-14T03:21:52.073Z,6.30
2022-11-14T03:24:18.946Z,3.95
2022-11-14T03:26:45.808Z,4.73
2022-11-14T03:29:12.558Z,3.58
2022-11-14T03:31:39.311Z,4.35
2022-11-14T03:34:06.104Z,4.05
2022-11-14T03:36:34.123Z,3.22
2022-11-14T03:39:00.896Z,4.03
2022-11-14T03:41:27.626Z,3.85
2022-11-14T03:43:54.567Z,4.50
2022-11-14T03:46:21.391Z,4.68
2022-11-14T03:48:48.158Z,5.00
2022-11-14T03:51:14.898Z,3.10
2022-11-14T03:53:41.641Z,5.00
2022-11-14T03:56:08.371Z,4.38
2022-11-14T03:58:35.149Z,4.40
2022-11-14T04:01:03.306Z,3.88
2022-11-14T04:03:30.089Z,3.55
2022-11-14T04:05:56.809Z,3.92
2022-11-14T04:08:23.578Z,3.05
2022-11-14T04:10:50.476Z,3.03
2022-11-14T04:13:17.231Z,2.67
2022-11-14T04:15:44.006Z,2.35
2022-11-14T04:18:10.763Z,3.47
2022-11-14T04:20:37.565Z,4.00
2022-11-14T04:23:04.294Z,3.25
2022-11-14T04:25:31.030Z,2.78
2022-11-14T04:27:57.794Z,3.05
2022-11-14T04:30:24.533Z,4.15
2022-11-14T04:32:51.363Z,4.45
2022-11-14T04:35:18.106Z,3.30
2022-11-14T04:37:46.029Z,3.40
2022-11-14T04:40:12.821Z,3.10
2022-11-14T04:42:39.587Z,3.60
2022-11-14T04:45:07.746Z,3.65
2022-11-14T04:47:34.591Z,3.60
2022-11-14T04:50:01.406Z,4.07
2022-11-14T04:52:28.433Z,3.97
2022-11-14T04:54:55.165Z,3.25
2022-11-14T04:57:21.889Z,3.47
2022-11-14T04:59:48.631Z,4.60
2022-11-14T05:02:15.372Z,4.55
2022-11-14T05:04:44.388Z,4.20
2022-11-14T05:07:11.541Z,3.83
2022-11-14T05:09:38.326Z,7.28
2022-11-14T05:12:05.898Z,8.27
2022-11-14T05:14:33.124Z,5.95
2022-11-14T05:16:59.888Z,4.47
2022-11-14T05:19:26.619Z,7.20
2022-11-14T05:21:53.336Z,5.82
2022-11-14T05:24:20.136Z,5.35
2022-11-14T05:26:46.866Z,6.07
2022-11-14T05:29:13.678Z,6.25
2022-11-14T05:31:40.451Z,5.07
2022-11-14T05:34:07.198Z,5.88
2022-11-14T05:36:33.923Z,5.05
2022-11-14T05:39:00.665Z,6.30
2022-11-14T05:41:27.381Z,8.25
2022-11-14T05:43:54.139Z,8.57
2022-11-14T05:46:20.907Z,11.38
2022-11-14T05:48:47.662Z,12.32
2022-11-14T05:51:14.586Z,14.95
2022-11-14T05:53:41.876Z,15.18
2022-11-14T05:56:11.889Z,14.80
2022-11-14T05:58:39.396Z,14.82
2022-11-14T06:01:11.994Z,16.23
2022-11-14T06:03:42.134Z,17.08
2022-11-14T06:06:12.286Z,19.20
2022-11-14T06:08:39.568Z,18.40
2022-11-14T06:11:10.209Z,15.65
2022-11-14T06:13:37.502Z,18.23
2022-11-14T06:16:09.404Z,13.82
2022-11-14T06:18:37.233Z,11.55
2022-11-14T06:21:05.360Z,12.80
2022-11-14T06:23:32.367Z,15.73
2022-11-14T06:26:06.403Z,23.20
2022-11-14T06:28:33.754Z,19.10
2022-11-14T06:31:02.651Z,22.45
2022-11-14T06:33:34.226Z,22.10
2022-11-14T06:36:04.225Z,19.63
2022-11-14T06:38:33.054Z,21.15
2022-11-14T06:41:21.116Z,20.67
2022-11-14T06:43:51.218Z,19.45
2022-11-14T06:46:20.626Z,18.20
2022-11-14T06:48:49.242Z,18.65
2022-11-14T06:51:17.198Z,16.67
2022-11-14T06:53:44.110Z,16.80
2022-11-14T06:56:14.316Z,16.88
2022-11-14T06:58:45.053Z,19.30
2022-11-14T07:01:15.360Z,19.85
2022-11-14T07:03:43.141Z,18.58
2022-11-14T07:06:15.631Z,19.95
2022-11-14T07:08:42.937Z,16.85
2022-11-14T07:11:22.563Z,17.58
2022-11-14T07:13:51.839Z,13.32
2022-11-14T07:16:19.843Z,94.80
2022-11-14T07:18:46.951Z,15.48
2022-11-14T07:21:13.694Z,11.65
2022-11-14T07:23:41.438Z,9.60
2022-11-14T07:26:10.630Z,36.42
2022-11-14T07:28:40.184Z,14.35
2022-11-14T07:31:13.491Z,43.80
2022-11-14T07:33:41.421Z,10.65
2022-11-14T07:36:09.771Z,9.23
2022-11-14T07:38:38.219Z,7.00
2022-11-14T07:41:09.339Z,8.75
2022-11-14T07:43:36.098Z,13.95
2022-11-14T07:46:06.822Z,11.10
2022-11-14T07:48:34.142Z,8.80
2022-11-14T07:51:02.668Z,10.32
2022-11-14T07:53:29.952Z,11.25
2022-11-14T07:55:57.704Z,9.57
2022-11-14T07:58:24.445Z,10.30
2022-11-14T08:00:51.285Z,9.63
2022-11-14T08:03:18.039Z,7.40
2022-11-14T08:05:44.918Z,9.20
2022-11-14T08:08:11.850Z,10.43
2022-11-14T08:10:38.709Z,8.63
2022-11-14T08:15:53.646Z,6.97
2022-11-14T08:18:20.912Z,7.85
2022-11-14T08:20:48.169Z,10.95
2022-11-14T08:23:15.507Z,9.75
2022-11-14T08:25:42.383Z,7.35
2022-11-14T08:28:09.409Z,6.88
2022-11-14T08:30:36.315Z,8.93
2022-11-14T08:33:04.906Z,5.93
2022-11-14T08:35:33.650Z,8.77
2022-11-14T08:38:03.584Z,5.45
2022-11-14T08:40:30.686Z,7.95
2022-11-14T08:43:01.996Z,23.83
2022-11-14T08:47:56.911Z,6.00
2022-11-14T08:50:24.875Z,7.32
2022-11-14T08:52:52.414Z,5.30
2022-11-14T08:55:20.699Z,3.60
2022-11-14T08:57:49.648Z,5.78
2022-11-14T09:00:17.433Z,7.30
2022-11-14T09:02:44.251Z,4.10
2022-11-14T09:05:11.317Z,5.22
2022-11-14T09:07:38.161Z,6.53
2022-11-14T09:10:06.542Z,5.55
2022-11-14T09:12:33.810Z,7.50
2022-11-14T09:15:00.745Z,4.07
2022-11-14T09:17:27.532Z,4.50
2022-11-14T09:19:54.393Z,6.22
2022-11-14T09:22:21.237Z,4.38
2022-11-14T09:24:49.375Z,6.05
2022-11-14T09:27:17.116Z,5.70
2022-11-14T09:29:44.130Z,5.63
2022-11-14T09:32:10.850Z,5.82
2022-11-14T09:34:37.742Z,8.40
2022-11-14T09:37:10.426Z,9.15
2022-11-14T09:39:43.738Z,4.82
2022-11-14T09:42:56.490Z,4.80
2022-11-14T09:45:23.380Z,4.75
2022-11-14T09:48:13.673Z,5.10
2022-11-14T09:50:53.749Z,6.43
2022-11-14T09:53:29.299Z,7.22
2022-11-14T09:55:56.035Z,5.20
2022-11-14T09:58:23.006Z,2.63
2022-11-14T10:01:09.158Z,3.85
2022-11-14T10:03:59.615Z,7.43
2022-11-14T10:06:52.225Z,6.68
2022-11-14T10:10:37.425Z,4.43
2022-11-14T10:14:18.673Z,10.43
2022-11-14T10:16:59.416Z,6.78
2022-11-14T10:19:58.293Z,3.95
2022-11-14T10:23:03.422Z,8.35
2022-11-14T10:25:57.967Z,5.18
2022-11-14T10:28:54.196Z,5.55
2022-11-14T10:31:25.206Z,3.60
2022-11-14T10:33:57.476Z,4.97
2022-11-14T10:36:54.818Z,5.22
2022-11-14T10:39:35.434Z,6.20
2022-11-14T10:42:29.495Z,4.05
2022-11-14T10:45:18.619Z,5.82
2022-11-14T10:47:56.288Z,5.93
2022-11-14T10:50:53.943Z,5.40
2022-11-14T10:54:05.538Z,6.43
2022-11-14T10:56:32.574Z,2.78
2022-11-14T10:58:59.312Z,4.35
2022-11-14T11:01:35.225Z,7.07
2022-11-14T11:04:27.858Z,7.68
2022-11-14T11:07:42.086Z,4.72
2022-11-14T11:10:40.328Z,3.92
2022-11-14T11:13:11.229Z,4.63
2022-11-14T11:15:42.970Z,3.60
2022-11-14T11:18:34.537Z,4.03
2022-11-14T11:21:14.291Z,7.18
2022-11-14T11:23:56.991Z,4.47
2022-11-14T11:26:30.279Z,7.10
2022-11-14T11:29:05.725Z,9.82
2022-11-14T11:31:56.162Z,5.28
2022-11-14T11:34:31.457Z,5.97
2022-11-14T11:37:13.956Z,4.45
2022-11-14T11:39:49.642Z,6.13
2022-11-14T11:45:34.603Z,3.78
2022-11-14T11:48:44.379Z,4.78
2022-11-14T11:51:18.293Z,4.05
2022-11-14T11:53:56.209Z,6.95
2022-11-14T11:56:31.354Z,4.82
2022-11-14T11:59:29.041Z,7.10
2022-11-14T12:01:55.844Z,4.65
2022-11-14T12:04:22.650Z,4.43
2022-11-14T12:07:18.458Z,5.57
2022-11-14T12:12:49.127Z,14.27
2022-11-14T12:15:29.206Z,4.80
2022-11-14T12:18:11.462Z,7.88
2022-11-14T12:21:02.192Z,4.10
2022-11-14T12:24:37.985Z,5.10
2022-11-14T12:27:32.048Z,4.68
2022-11-14T12:30:22.273Z,7.10
2022-11-14T12:32:57.377Z,7.30
2022-11-14T12:35:32.820Z,6.63
2022-11-14T12:38:03.132Z,6.32
2022-11-14T12:40:34.766Z,11.68
2022-11-14T12:43:03.026Z,6.93
2022-11-14T12:45:57.458Z,4.65
2022-11-14T12:48:36.377Z,7.05
2022-11-14T12:51:09.241Z,6.55
2022-11-14T12:53:36.014Z,6.25
2022-11-14T12:56:30.713Z,6.10
2022-11-14T12:59:37.184Z,6.15
2022-11-14T13:02:35.965Z,3.33
2022-11-14T13:05:23.514Z,4.40
2022-11-14T13:08:39.909Z,8.10
2022-11-14T13:11:51.331Z,4.93
2022-11-14T13:14:38.664Z,4.97
2022-11-14T13:17:35.952Z,4.18
2022-11-14T13:20:49.877Z,4.85
2022-11-14T13:23:42.811Z,6.18
2022-11-14T13:26:13.298Z,5.35
2022-11-14T13:28:51.281Z,4.13
2022-11-14T13:31:36.424Z,5.65
2022-11-14T13:34:56.759Z,7.45
2022-11-14T13:38:17.985Z,3.60
2022-11-14T13:41:06.495Z,3.28
2022-11-14T13:44:04.717Z,5.18
2022-11-14T13:47:03.344Z,2.65
2022-11-14T13:49:58.982Z,4.22
2022-11-14T13:52:37.619Z,4.57
2022-11-14T13:55:05.061Z,6.25
2022-11-14T13:58:12.635Z,4.80
2022-11-14T14:01:11.936Z,3.75
2022-11-14T14:03:47.869Z,5.22
2022-11-14T14:06:29.033Z,5.53
2022-11-14T14:09:26.885Z,5.75
2022-11-14T14:12:44.130Z,20.27
2022-11-14T14:15:33.826Z,7.45
2022-11-14T14:18:19.834Z,4.97
2022-11-14T14:21:29.707Z,2.95
2022-11-14T14:24:19.089Z,6.47
2022-11-14T14:27:11.980Z,4.35
2022-11-14T14:29:53.525Z,5.50
2022-11-14T14:32:20.544Z,3.88
2022-11-14T14:34:47.398Z,4.53
2022-11-14T14:37:24.926Z,6.22
2022-11-14T14:40:01.278Z,5.18
2022-11-14T14:42:40.416Z,4.45
2022-11-14T14:45:23.716Z,6.13
2022-11-14T14:48:01.189Z,3.58
2022-11-14T14:50:36.939Z,3.80
2022-11-14T14:53:04.504Z,3.25
2022-11-14T14:55:36.063Z,3.67
2022-11-14T14:58:22.681Z,7.25
2022-11-14T15:01:04.907Z,3.55
2022-11-14T15:03:50.168Z,3.17
2022-11-14T15:06:39.965Z,7.50
2022-11-14T15:09:20.593Z,6.40
2022-11-14T15:11:54.305Z,5.43
2022-11-14T15:14:25.167Z,7.18
2022-11-14T15:16:53.207Z,7.15
2022-11-14T15:19:37.255Z,3.95
2022-11-14T15:22:20.948Z,9.52
2022-11-14T15:25:18.797Z,6.43
2022-11-14T15:27:50.534Z,5.30
2022-11-14T15:30:28.049Z,6.00
2022-11-14T15:32:58.356Z,5.55
2022-11-14T15:35:28.242Z,4.80
2022-11-14T15:38:42.460Z,5.13
2022-11-14T15:41:17.788Z,4.05
2022-11-14T15:43:44.471Z,4.90
2022-11-14T15:46:37.737Z,7.05
2022-11-14T15:49:23.166Z,10.02
2022-11-14T15:51:59.993Z,5.20
2022-11-14T15:54:33.162Z,6.65
2022-11-14T15:57:06.463Z,9.23
2022-11-14T15:59:34.709Z,8.32
2022-11-14T16:02:22.402Z,5.30
2022-11-14T16:04:51.933Z,5.32
2022-11-14T16:07:19.795Z,10.73
2022-11-14T16:09:46.988Z,13.80
2022-11-14T16:12:14.480Z,10.80
2022-11-14T16:14:41.867Z,15.90
2022-11-14T16:17:17.203Z,15.77
2022-11-14T16:19:44.447Z,13.25
2022-11-14T16:22:17.869Z,6.35
2022-11-14T16:24:44.626Z,5.88
2022-11-14T16:27:11.355Z,6.18
2022-11-14T16:29:38.191Z,4.35
2022-11-14T16:32:05.155Z,3.83
2022-11-14T16:34:31.911Z,5.22
2022-11-14T16:37:01.514Z,6.03
2022-11-14T16:39:29.002Z,5.57
2022-11-14T16:42:08.303Z,6.97
2022-11-14T16:44:41.821Z,5.50
2022-11-14T16:47:17.010Z,5.65
2022-11-14T16:49:57.659Z,5.75
2022-11-14T16:52:24.763Z,3.97
2022-11-14T16:54:51.534Z,4.10
2022-11-14T16:57:18.475Z,4.82
2022-11-14T16:59:45.363Z,3.40
2022-11-14T17:02:15.865Z,3.75
2022-11-14T17:04:44.450Z,3.33
2022-11-14T17:07:13.230Z,4.88
2022-11-14T17:09:40.155Z,4.40
2022-11-14T17:12:07.361Z,2.92
2022-11-14T17:14:34.141Z,3.08
2022-11-14T17:17:03.900Z,4.25
2022-11-14T17:19:30.781Z,3.35
2022-11-14T17:21:57.540Z,4.18
2022-11-14T17:24:30.070Z,3.20
2022-11-14T17:26:58.606Z,5.15
2022-11-14T17:29:25.349Z,2.38
2022-11-14T17:31:52.060Z,8.13
2022-11-14T17:34:18.827Z,4.03
2022-11-14T17:36:45.552Z,3.30
2022-11-14T17:39:12.289Z,4.68
2022-11-14T17:41:39.106Z,3.65
2022-11-14T17:44:05.849Z,3.55
2022-11-14T17:46:33.045Z,3.35
2022-11-14T17:48:59.833Z,4.65
2022-11-14T17:51:26.886Z,3.03
2022-11-14T17:53:53.706Z,2.05
2022-11-14T17:56:32.977Z,4.50
2022-11-14T17:59:25.047Z,3.90
2022-11-14T18:02:03.938Z,2.05
2022-11-14T18:04:33.118Z,1.90
2022-11-14T18:06:59.899Z,3.40
2022-11-14T18:09:28.079Z,3.97
2022-11-14T18:11:54.802Z,6.80
2022-11-14T18:14:21.537Z,11.63
2022-11-14T18:17:11.629Z,31.35
2022-11-14T18:19:34.991Z,11.02
2022-11-14T18:22:01.734Z,9.40
2022-11-14T18:24:28.707Z,4.68
2022-11-14T18:26:55.477Z,2.65
2022-11-14T18:29:22.302Z,3.92
2022-11-14T18:31:49.027Z,5.57
2022-11-14T18:34:15.841Z,2.35
2022-11-14T18:36:42.571Z,2.85
2022-11-14T18:39:09.341Z,3.05
2022-11-14T18:41:36.053Z,4.03
2022-11-14T18:44:05.151Z,4.03
2022-11-14T18:46:36.914Z,2.63
2022-11-14T18:49:04.181Z,3.25
2022-11-14T18:51:31.295Z,3.80
2022-11-14T18:54:01.328Z,3.45
2022-11-14T18:56:28.245Z,3.05
2022-11-14T18:58:56.983Z,4.70
2022-11-14T19:01:30.052Z,4.32
2022-11-14T19:04:00.144Z,2.42
2022-11-14T19:06:27.614Z,3.47
2022-11-14T19:09:15.802Z,3.47
2022-11-14T19:12:02.101Z,3.55
2022-11-14T19:14:29.165Z,4.82
2022-11-14T19:16:55.916Z,3.72
2022-11-14T19:19:22.824Z,5.38
2022-11-14T19:21:52.671Z,3.30
2022-11-14T19:24:19.497Z,3.53
2022-11-14T19:26:46.819Z,3.08
2022-11-14T19:29:13.717Z,3.63
2022-11-14T19:31:41.514Z,3.20
2022-11-14T19:34:09.942Z,3.78
2022-11-14T19:36:58.996Z,2.67
2022-11-14T19:39:24.396Z,4.18
2022-11-14T19:41:51.205Z,6.03
2022-11-14T19:44:17.968Z,4.88
2022-11-14T19:46:47.861Z,4.88
2022-11-14T19:49:15.304Z,3.80
2022-11-14T19:51:42.305Z,3.30
2022-11-14T19:54:11.144Z,3.35
2022-11-14T19:56:38.438Z,3.88
2022-11-14T19:59:09.616Z,4.55
2022-11-14T20:01:41.915Z,2.60
2022-11-14T20:04:13.115Z,3.45
2022-11-14T20:06:41.461Z,5.57
2022-11-14T20:09:10.327Z,2.92
2022-11-14T20:11:37.675Z,5.18
2022-11-14T20:14:05.713Z,3.20
2022-11-14T20:16:35.525Z,4.43
2022-11-14T20:19:02.681Z,2.53
2022-11-14T20:21:32.656Z,4.35
2022-11-14T20:24:00.726Z,3.55
2022-11-14T20:26:27.779Z,3.53
2022-11-14T20:28:54.708Z,3.72
2022-11-14T20:31:30.143Z,5.45
2022-11-14T20:33:57.014Z,3.55
2022-11-14T20:36:32.025Z,4.55
2022-11-14T20:39:06.055Z,3.92
2022-11-14T20:41:33.543Z,5.13
2022-11-14T20:44:03.427Z,3.00
2022-11-14T20:46:30.202Z,4.53
2022-11-14T20:48:56.975Z,4.65
2022-11-14T20:51:25.518Z,4.88
2022-11-14T20:53:54.994Z,4.15
2022-11-14T20:56:22.988Z,2.63
2022-11-14T20:58:52.090Z,2.95
2022-11-14T21:01:19.654Z,4.05
2022-11-14T21:03:47.571Z,2.75
2022-11-14T21:06:16.565Z,4.97
2022-11-14T21:08:43.743Z,4.30
2022-11-14T21:11:18.007Z,2.63
2022-11-14T21:13:57.283Z,4.75
2022-11-14T21:16:38.548Z,5.00
2022-11-14T21:21:37.687Z,1.95
2022-11-14T21:24:06.118Z,5.63
2022-11-14T21:26:37.454Z,2.60
2022-11-14T21:29:11.892Z,5.93
2022-11-14T21:31:42.598Z,4.30
2022-11-14T21:34:15.047Z,4.05
2022-11-14T21:36:46.672Z,2.25
2022-11-14T21:39:16.387Z,2.50
2022-11-14T21:41:45.294Z,2.78
2022-11-14T21:44:14.721Z,4.97
2022-11-14T21:46:43.129Z,3.40
2022-11-14T21:49:10.363Z,4.55
2022-11-14T21:51:37.119Z,3.15
2022-11-14T21:54:06.193Z,4.63
2022-11-14T21:56:34.894Z,6.57
2022-11-14T21:59:14.016Z,3.72
2022-11-14T22:02:06.923Z,3.60
2022-11-14T22:04:34.366Z,2.97
2022-11-14T22:07:08.646Z,5.32
2022-11-14T22:09:36.383Z,5.55
2022-11-14T22:12:05.812Z,5.60
2022-11-14T22:14:32.556Z,2.35
2022-11-14T22:16:59.721Z,249.15
2022-11-14T22:19:26.478Z,21.73
2022-11-14T22:21:54.090Z,3.53
2022-11-14T22:24:21.079Z,2.00
2022-11-14T22:26:47.814Z,3.13
2022-11-14T22:29:14.637Z,3.38
2022-11-14T22:31:41.447Z,3.65
2022-11-14T22:34:08.290Z,3.55
2022-11-14T22:36:35.819Z,2.83
2022-11-14T22:39:02.769Z,2.53
2022-11-14T22:41:33.271Z,5.53
2022-11-14T22:44:01.466Z,8.52
2022-11-14T22:46:29.122Z,2.45
2022-11-14T22:48:56.250Z,3.13
2022-11-14T22:51:25.411Z,3.33
2022-11-14T22:53:55.323Z,3.42
2022-11-14T22:56:25.340Z,5.00
2022-11-14T22:58:52.454Z,4.78
2022-11-14T23:01:21.577Z,3.13
2022-11-14T23:03:53.656Z,2.47
2022-11-14T23:06:20.577Z,5.22
2022-11-14T23:08:47.490Z,4.68
2022-11-14T23:11:22.005Z,1.90
2022-11-14T23:13:52.198Z,2.00
2022-11-14T23:16:24.746Z,3.28
2022-11-14T23:19:00.052Z,2.38
2022-11-14T23:21:35.243Z,4.63
2022-11-14T23:24:10.146Z,5.25
2022-11-14T23:26:37.394Z,2.20
2022-11-14T23:29:04.596Z,4.45
2022-11-14T23:31:31.441Z,5.35
2022-11-14T23:33:58.378Z,2.38
2022-11-14T23:36:25.485Z,5.22
2022-11-14T23:38:53.678Z,4.35
2022-11-14T23:41:23.641Z,3.55
2022-11-14T23:43:50.391Z,2.10
2022-11-14T23:46:17.426Z,3.92
2022-11-14T23:48:44.198Z,3.20
2022-11-14T23:51:11.432Z,3.08
2022-11-14T23:53:38.179Z,3.08
2022-11-14T23:56:05.233Z,3.85
2022-11-14T23:58:31.976Z,7.55
